createdAt,value
2019-02-21T00:00:02.406Z,3.70
2019-02-21T00:01:03.233Z,3.70
2019-02-21T00:01:40.923Z,3.70
2019-02-21T00:02:19.046Z,3.70
2019-02-21T00:02:54.707Z,3.70
2019-02-21T00:03:30.206Z,3.70
2019-02-21T00:04:05.825Z,3.70
2019-02-21T00:04:41.307Z,3.70
2019-02-21T00:05:16.827Z,3.70
2019-02-21T00:05:52.547Z,3.70
2019-02-21T00:06:28.016Z,3.70
2019-02-21T00:07:03.614Z,3.70
2019-02-21T00:07:39.408Z,3.70
2019-02-21T00:08:15.317Z,3.70
2019-02-21T00:08:50.934Z,3.70
2019-02-21T00:09:26.545Z,3.70
2019-02-21T00:10:01.907Z,3.70
2019-02-21T00:10:37.306Z,3.70
2019-02-21T00:11:12.873Z,3.70
2019-02-21T00:11:48.499Z,3.70
2019-02-21T00:12:24.233Z,3.70
2019-02-21T00:12:59.772Z,3.70
2019-02-21T00:13:35.236Z,3.70
2019-02-21T00:14:10.873Z,3.70
2019-02-21T00:14:46.594Z,3.70
2019-02-21T00:15:22.429Z,3.70
2019-02-21T00:15:58.215Z,3.70
2019-02-21T00:16:33.930Z,3.60
2019-02-21T00:17:09.647Z,3.60
2019-02-21T00:17:45.130Z,3.60
2019-02-21T00:18:20.697Z,3.60
2019-02-21T00:18:56.471Z,3.60
2019-02-21T00:19:31.975Z,3.60
2019-02-21T00:20:07.878Z,3.60
2019-02-21T00:20:43.802Z,3.60
2019-02-21T00:21:19.508Z,3.60
2019-02-21T00:21:55.009Z,3.60
2019-02-21T00:22:30.567Z,3.60
2019-02-21T00:23:06.181Z,3.60
2019-02-21T00:23:41.715Z,3.70
2019-02-21T00:24:17.346Z,3.60
2019-02-21T00:24:53.068Z,3.70
2019-02-21T00:25:28.389Z,3.70
2019-02-21T00:26:03.906Z,3.70
2019-02-21T00:26:39.353Z,3.60
2019-02-21T00:27:14.837Z,3.70
2019-02-21T00:27:50.491Z,3.60
2019-02-21T00:28:26.390Z,3.70
2019-02-21T00:29:02.092Z,3.70
2019-02-21T00:29:37.945Z,3.70
2019-02-21T00:30:13.855Z,3.70
2019-02-21T00:30:49.388Z,3.70
2019-02-21T00:31:25.007Z,3.70
2019-02-21T00:32:00.774Z,3.60
2019-02-21T00:32:36.469Z,3.70
2019-02-21T00:33:12.091Z,3.70
2019-02-21T00:33:47.651Z,3.70
2019-02-21T00:34:23.400Z,3.70
2019-02-21T00:34:59.017Z,3.70
2019-02-21T00:35:34.555Z,3.70
2019-02-21T00:36:10.220Z,3.70
2019-02-21T00:36:46.271Z,3.70
2019-02-21T00:37:21.867Z,3.70
2019-02-21T00:37:57.575Z,3.70
2019-02-21T00:38:33.330Z,3.60
2019-02-21T00:39:08.930Z,3.60
2019-02-21T00:39:44.366Z,3.60
2019-02-21T00:40:20.062Z,3.60
2019-02-21T00:40:55.850Z,3.50
2019-02-21T00:41:31.488Z,3.50
2019-02-21T00:42:07.267Z,3.50
2019-02-21T00:42:42.943Z,3.50
2019-02-21T00:43:18.613Z,3.50
2019-02-21T00:43:54.090Z,3.40
2019-02-21T00:44:29.531Z,3.40
2019-02-21T00:45:05.084Z,3.40
2019-02-21T00:45:40.819Z,3.40
2019-02-21T00:46:16.330Z,3.50
2019-02-21T00:46:52.007Z,3.50
2019-02-21T00:47:27.286Z,3.50
2019-02-21T00:48:02.911Z,3.40
2019-02-21T00:48:38.510Z,3.40
2019-02-21T00:49:14.206Z,3.40
2019-02-21T00:49:49.846Z,3.40
2019-02-21T00:50:25.290Z,3.40
2019-02-21T00:51:00.601Z,3.40
2019-02-21T00:51:36.137Z,3.40
2019-02-21T00:52:11.596Z,3.40
2019-02-21T00:52:47.057Z,3.40
2019-02-21T00:53:22.723Z,3.40
2019-02-21T00:53:58.128Z,3.40
2019-02-21T00:54:33.715Z,3.40
2019-02-21T00:55:09.366Z,3.40
2019-02-21T00:55:44.887Z,3.50
2019-02-21T00:56:20.168Z,3.40
2019-02-21T00:56:55.595Z,3.40
2019-02-21T00:57:31.157Z,3.50
2019-02-21T00:58:06.610Z,3.50
2019-02-21T00:58:42.087Z,3.40
2019-02-21T00:59:17.932Z,3.50
2019-02-21T00:59:53.656Z,3.50
2019-02-21T01:00:29.250Z,3.40
2019-02-21T01:01:04.779Z,3.40
2019-02-21T01:01:40.434Z,3.40
2019-02-21T01:02:15.788Z,3.40
2019-02-21T01:02:51.309Z,3.40
2019-02-21T01:03:26.808Z,3.40
2019-02-21T01:04:02.435Z,3.40
2019-02-21T01:04:37.961Z,3.40
2019-02-21T01:05:13.473Z,3.40
2019-02-21T01:05:48.975Z,3.40
2019-02-21T01:06:24.485Z,3.40
2019-02-21T01:06:59.888Z,3.40
2019-02-21T01:07:35.526Z,3.50
2019-02-21T01:08:10.985Z,3.40
2019-02-21T01:08:48.113Z,3.40
2019-02-21T01:09:23.688Z,3.40
2019-02-21T01:09:59.209Z,3.40
2019-02-21T01:10:34.912Z,3.40
2019-02-21T01:11:10.670Z,3.40
2019-02-21T01:11:46.049Z,3.40
2019-02-21T01:12:21.608Z,3.40
2019-02-21T01:12:57.407Z,3.30
2019-02-21T01:13:32.987Z,3.30
2019-02-21T01:14:08.933Z,3.40
2019-02-21T01:14:44.306Z,3.40
2019-02-21T01:15:19.917Z,3.40
2019-02-21T01:15:55.447Z,3.40
2019-02-21T01:16:30.942Z,3.40
2019-02-21T01:17:06.714Z,3.40
2019-02-21T01:17:42.307Z,3.40
2019-02-21T01:18:17.932Z,3.40
2019-02-21T01:18:53.546Z,3.40
2019-02-21T01:19:29.212Z,3.40
2019-02-21T01:20:05.010Z,3.40
2019-02-21T01:20:40.771Z,3.40
2019-02-21T01:21:16.555Z,3.40
2019-02-21T01:21:52.013Z,3.50
2019-02-21T01:22:27.435Z,3.40
2019-02-21T01:23:03.151Z,3.40
2019-02-21T01:23:38.792Z,3.40
2019-02-21T01:24:14.153Z,3.50
2019-02-21T01:24:49.943Z,3.40
2019-02-21T01:25:25.787Z,3.50
2019-02-21T01:26:01.489Z,3.50
2019-02-21T01:26:36.988Z,3.50
2019-02-21T01:27:12.798Z,3.50
2019-02-21T01:27:48.548Z,3.50
2019-02-21T01:28:24.387Z,3.50
2019-02-21T01:28:59.938Z,3.50
2019-02-21T01:29:35.606Z,3.50
2019-02-21T01:30:11.397Z,3.50
2019-02-21T01:30:56.710Z,3.50
2019-02-21T01:31:24.470Z,3.50
2019-02-21T01:32:00.071Z,3.40
2019-02-21T01:32:35.629Z,3.50
2019-02-21T01:33:11.248Z,3.50
2019-02-21T01:33:46.869Z,3.50
2019-02-21T01:34:22.870Z,3.50
2019-02-21T01:34:58.589Z,3.50
2019-02-21T01:35:34.148Z,3.40
2019-02-21T01:36:09.728Z,3.40
2019-02-21T01:36:45.133Z,3.40
2019-02-21T01:37:20.688Z,3.40
2019-02-21T01:37:56.155Z,3.40
2019-02-21T01:38:31.727Z,3.30
2019-02-21T01:39:08.708Z,3.20
2019-02-21T01:39:44.447Z,3.20
2019-02-21T01:40:20.048Z,3.20
2019-02-21T01:40:55.716Z,3.20
2019-02-21T01:41:31.266Z,3.20
2019-02-21T01:42:07.111Z,3.20
2019-02-21T01:42:43.091Z,3.20
2019-02-21T01:43:18.632Z,3.20
2019-02-21T01:43:54.809Z,3.20
2019-02-21T01:44:30.355Z,3.20
2019-02-21T01:45:06.246Z,3.20
2019-02-21T01:45:41.905Z,3.20
2019-02-21T01:46:17.509Z,3.20
2019-02-21T01:46:53.008Z,3.20
2019-02-21T01:47:28.647Z,3.20
2019-02-21T01:48:04.224Z,3.20
2019-02-21T01:48:39.775Z,3.20
2019-02-21T01:49:15.231Z,3.20
2019-02-21T01:49:50.749Z,3.20
2019-02-21T01:50:26.311Z,3.20
2019-02-21T01:51:01.951Z,3.20
2019-02-21T01:51:37.529Z,3.20
2019-02-21T01:52:13.189Z,3.20
2019-02-21T01:52:48.670Z,3.20
2019-02-21T01:53:24.208Z,3.20
2019-02-21T01:53:59.811Z,3.20
2019-02-21T01:54:35.335Z,3.20
2019-02-21T01:55:11.412Z,3.20
2019-02-21T01:55:47.151Z,3.20
2019-02-21T01:56:22.914Z,3.20
2019-02-21T01:56:58.558Z,3.20
2019-02-21T01:57:34.190Z,3.30
2019-02-21T01:58:09.650Z,3.30
2019-02-21T01:58:45.329Z,3.30
2019-02-21T01:59:20.948Z,3.30
2019-02-21T01:59:56.348Z,3.30
2019-02-21T02:00:32.105Z,3.30
2019-02-21T02:01:08.782Z,3.30
2019-02-21T02:01:44.807Z,3.30
2019-02-21T02:02:20.347Z,3.30
2019-02-21T02:02:55.788Z,3.40
2019-02-21T02:03:31.629Z,3.30
2019-02-21T02:04:07.306Z,3.30
2019-02-21T02:04:42.773Z,3.30
2019-02-21T02:05:18.326Z,3.30
2019-02-21T02:05:53.806Z,3.30
2019-02-21T02:06:29.387Z,3.30
2019-02-21T02:07:05.201Z,3.30
2019-02-21T02:07:40.974Z,3.30
2019-02-21T02:08:16.488Z,3.30
2019-02-21T02:08:51.988Z,3.40
2019-02-21T02:09:27.928Z,3.40
2019-02-21T02:10:03.670Z,3.40
2019-02-21T02:10:39.336Z,3.40
2019-02-21T02:11:14.928Z,3.40
2019-02-21T02:11:50.408Z,3.40
2019-02-21T02:12:25.908Z,3.40
2019-02-21T02:13:01.471Z,3.40
2019-02-21T02:13:37.149Z,3.50
2019-02-21T02:14:12.712Z,3.50
2019-02-21T02:14:48.319Z,3.40
2019-02-21T02:15:24.037Z,3.40
2019-02-21T02:15:59.615Z,3.50
2019-02-21T02:16:35.188Z,3.40
2019-02-21T02:17:10.674Z,3.40
2019-02-21T02:17:46.248Z,3.40
2019-02-21T02:18:21.568Z,3.40
2019-02-21T02:18:57.109Z,3.50
2019-02-21T02:19:32.728Z,3.50
2019-02-21T02:20:08.695Z,3.50
2019-02-21T02:20:44.207Z,3.50
2019-02-21T02:21:19.627Z,3.40
2019-02-21T02:21:55.049Z,3.40
2019-02-21T02:22:30.546Z,3.50
2019-02-21T02:23:06.046Z,3.50
2019-02-21T02:23:41.986Z,3.50
2019-02-21T02:24:17.609Z,3.40
2019-02-21T02:24:53.228Z,3.50
2019-02-21T02:25:28.749Z,3.50
2019-02-21T02:26:04.371Z,3.50
2019-02-21T02:26:39.848Z,3.50
2019-02-21T02:27:15.548Z,3.50
2019-02-21T02:27:51.095Z,3.50
2019-02-21T02:28:26.833Z,3.50
2019-02-21T02:29:02.387Z,3.50
2019-02-21T02:29:37.871Z,3.50
2019-02-21T02:30:14.293Z,3.50
2019-02-21T02:30:49.832Z,3.60
2019-02-21T02:31:25.217Z,3.60
2019-02-21T02:32:00.577Z,3.60
2019-02-21T02:32:35.873Z,3.60
2019-02-21T02:33:11.410Z,3.60
2019-02-21T02:33:46.950Z,3.60
2019-02-21T02:34:22.739Z,3.60
2019-02-21T02:34:59.967Z,3.60
2019-02-21T02:35:36.088Z,3.60
2019-02-21T02:36:11.750Z,3.70
2019-02-21T02:36:47.434Z,3.70
2019-02-21T02:37:23.046Z,3.70
2019-02-21T02:37:58.686Z,3.70
2019-02-21T02:38:34.306Z,3.70
2019-02-21T02:39:09.946Z,3.70
2019-02-21T02:39:45.509Z,3.70
2019-02-21T02:40:21.220Z,3.70
2019-02-21T02:40:56.931Z,3.70
2019-02-21T02:41:32.360Z,3.70
2019-02-21T02:42:08.037Z,3.70
2019-02-21T02:42:43.752Z,3.70
2019-02-21T02:43:19.261Z,3.70
2019-02-21T02:43:54.691Z,3.70
2019-02-21T02:44:30.485Z,3.80
2019-02-21T02:45:06.591Z,3.70
2019-02-21T02:45:42.236Z,3.80
2019-02-21T02:46:17.882Z,3.80
2019-02-21T02:46:53.247Z,3.80
2019-02-21T02:47:28.870Z,3.80
2019-02-21T02:48:04.320Z,3.80
2019-02-21T02:48:39.828Z,3.80
2019-02-21T02:49:15.328Z,3.80
2019-02-21T02:49:50.748Z,3.80
2019-02-21T02:50:26.269Z,3.80
2019-02-21T02:51:02.227Z,3.80
2019-02-21T02:51:37.808Z,3.80
2019-02-21T02:52:13.574Z,3.80
2019-02-21T02:52:48.993Z,3.80
2019-02-21T02:53:24.474Z,3.80
2019-02-21T02:53:59.992Z,3.80
2019-02-21T02:54:35.333Z,3.80
2019-02-21T02:55:10.726Z,3.90
2019-02-21T02:55:46.171Z,3.90
2019-02-21T02:56:21.613Z,3.90
2019-02-21T02:56:57.048Z,3.90
2019-02-21T02:57:32.429Z,3.90
2019-02-21T02:58:07.996Z,3.90
2019-02-21T02:58:45.428Z,3.90
2019-02-21T02:59:20.387Z,3.90
2019-02-21T02:59:55.808Z,3.90
2019-02-21T03:00:31.255Z,3.90
2019-02-21T03:01:06.690Z,4.00
2019-02-21T03:01:42.533Z,4.00
2019-02-21T03:02:17.814Z,3.90
2019-02-21T03:02:53.250Z,4.00
2019-02-21T03:03:28.778Z,4.00
2019-02-21T03:04:04.042Z,4.00
2019-02-21T03:04:39.689Z,4.00
2019-02-21T03:05:15.377Z,4.00
2019-02-21T03:05:50.868Z,4.00
2019-02-21T03:06:26.287Z,4.00
2019-02-21T03:07:01.696Z,4.00
2019-02-21T03:07:37.128Z,4.00
2019-02-21T03:08:12.626Z,4.00
2019-02-21T03:08:48.423Z,4.00
2019-02-21T03:09:23.909Z,4.00
2019-02-21T03:09:59.403Z,4.00
2019-02-21T03:10:34.943Z,4.00
2019-02-21T03:11:10.667Z,4.00
2019-02-21T03:11:46.094Z,4.00
2019-02-21T03:12:21.490Z,4.00
2019-02-21T03:12:57.076Z,4.00
2019-02-21T03:13:32.531Z,4.00
2019-02-21T03:14:07.831Z,4.00
2019-02-21T03:14:43.171Z,4.00
2019-02-21T03:15:18.529Z,4.00
2019-02-21T03:15:54.206Z,4.10
2019-02-21T03:16:29.727Z,4.00
2019-02-21T03:17:05.149Z,4.00
2019-02-21T03:17:40.569Z,4.00
2019-02-21T03:18:16.010Z,4.00
2019-02-21T03:18:51.509Z,4.00
2019-02-21T03:19:26.870Z,4.00
2019-02-21T03:20:02.397Z,4.00
2019-02-21T03:20:38.048Z,4.00
2019-02-21T03:21:13.587Z,4.00
2019-02-21T03:21:48.986Z,4.00
2019-02-21T03:22:24.325Z,4.00
2019-02-21T03:22:59.971Z,4.00
2019-02-21T03:23:35.290Z,4.00
2019-02-21T03:24:10.689Z,4.00
2019-02-21T03:24:46.548Z,4.00
2019-02-21T03:25:22.006Z,4.00
2019-02-21T03:25:57.645Z,4.00
2019-02-21T03:26:33.346Z,4.10
2019-02-21T03:27:08.865Z,4.00
2019-02-21T03:27:44.321Z,4.10
2019-02-21T03:28:19.613Z,4.00
2019-02-21T03:28:55.074Z,4.00
2019-02-21T03:29:30.652Z,4.00
2019-02-21T03:30:06.468Z,4.00
2019-02-21T03:30:41.895Z,4.00
2019-02-21T03:31:17.311Z,4.00
2019-02-21T03:31:55.581Z,4.00
2019-02-21T03:32:30.035Z,4.00
2019-02-21T03:33:05.446Z,4.00
2019-02-21T03:33:41.190Z,4.00
2019-02-21T03:34:16.776Z,4.00
2019-02-21T03:34:52.272Z,4.00
2019-02-21T03:35:27.696Z,4.00
2019-02-21T03:36:03.370Z,4.00
2019-02-21T03:36:38.814Z,4.00
2019-02-21T03:37:14.408Z,4.00
2019-02-21T03:37:49.954Z,4.00
2019-02-21T03:38:25.449Z,4.00
2019-02-21T03:39:00.889Z,4.00
2019-02-21T03:39:36.307Z,4.00
2019-02-21T03:40:11.775Z,4.00
2019-02-21T03:40:47.429Z,4.00
2019-02-21T03:41:23.110Z,4.00
2019-02-21T03:41:58.745Z,4.00
2019-02-21T03:42:34.045Z,4.00
2019-02-21T03:43:09.409Z,4.00
2019-02-21T03:43:44.749Z,4.00
2019-02-21T03:44:20.030Z,4.00
2019-02-21T03:44:55.392Z,4.00
2019-02-21T03:45:31.207Z,4.00
2019-02-21T03:46:06.566Z,4.00
2019-02-21T03:46:42.098Z,4.00
2019-02-21T03:47:17.585Z,4.00
2019-02-21T03:47:53.048Z,4.10
2019-02-21T03:48:28.396Z,4.00
2019-02-21T03:49:03.907Z,4.00
2019-02-21T03:49:39.330Z,4.00
2019-02-21T03:50:15.293Z,4.00
2019-02-21T03:50:51.054Z,4.10
2019-02-21T03:51:26.388Z,4.10
2019-02-21T03:52:01.748Z,4.10
2019-02-21T03:52:37.049Z,4.10
2019-02-21T03:53:12.452Z,4.10
2019-02-21T03:53:47.886Z,4.10
2019-02-21T03:54:23.904Z,4.10
2019-02-21T03:54:59.244Z,4.10
2019-02-21T03:55:35.773Z,4.10
2019-02-21T03:56:11.544Z,4.10
2019-02-21T03:56:47.074Z,4.10
2019-02-21T03:57:22.491Z,4.10
2019-02-21T03:57:57.790Z,4.10
2019-02-21T03:58:33.150Z,4.10
2019-02-21T03:59:08.591Z,4.10
2019-02-21T03:59:43.986Z,4.20
2019-02-21T04:00:19.353Z,4.20
2019-02-21T04:00:55.307Z,4.10
2019-02-21T04:01:30.766Z,4.10
2019-02-21T04:02:06.271Z,4.20
2019-02-21T04:02:41.648Z,4.20
2019-02-21T04:03:17.489Z,4.20
2019-02-21T04:03:53.051Z,4.20
2019-02-21T04:04:28.496Z,4.10
2019-02-21T04:05:04.088Z,4.20
2019-02-21T04:05:39.529Z,4.10
2019-02-21T04:06:14.869Z,4.10
2019-02-21T04:06:50.169Z,4.20
2019-02-21T04:07:25.563Z,4.10
2019-02-21T04:08:00.876Z,4.10
2019-02-21T04:08:36.269Z,4.10
2019-02-21T04:09:11.618Z,4.10
2019-02-21T04:09:47.352Z,4.10
2019-02-21T04:10:23.090Z,4.10
2019-02-21T04:10:58.430Z,4.10
2019-02-21T04:11:33.938Z,4.20
2019-02-21T04:12:09.623Z,4.20
2019-02-21T04:12:45.155Z,4.20
2019-02-21T04:13:20.613Z,4.20
2019-02-21T04:13:56.080Z,4.10
2019-02-21T04:14:31.587Z,4.20
2019-02-21T04:15:07.547Z,4.20
2019-02-21T04:15:42.888Z,4.20
2019-02-21T04:16:18.270Z,4.20
2019-02-21T04:16:53.849Z,4.20
2019-02-21T04:17:29.170Z,4.20
2019-02-21T04:18:04.507Z,4.20
2019-02-21T04:18:39.956Z,4.20
2019-02-21T04:19:15.459Z,4.20
2019-02-21T04:19:50.771Z,4.20
2019-02-21T04:20:26.228Z,4.20
2019-02-21T04:21:01.512Z,4.20
2019-02-21T04:21:36.769Z,4.20
2019-02-21T04:22:12.241Z,4.20
2019-02-21T04:22:47.813Z,4.20
2019-02-21T04:23:23.070Z,4.20
2019-02-21T04:23:58.392Z,4.20
2019-02-21T04:24:33.831Z,4.20
2019-02-21T04:25:09.467Z,4.20
2019-02-21T04:25:44.808Z,4.20
2019-02-21T04:26:20.197Z,4.20
2019-02-21T04:26:55.751Z,4.20
2019-02-21T04:27:31.331Z,4.20
2019-02-21T04:28:06.748Z,4.20
2019-02-21T04:28:42.027Z,4.20
2019-02-21T04:29:17.497Z,4.20
2019-02-21T04:29:53.047Z,4.20
2019-02-21T04:30:28.427Z,4.20
2019-02-21T04:31:03.892Z,4.20
2019-02-21T04:31:39.346Z,4.20
2019-02-21T04:32:16.998Z,4.20
2019-02-21T04:32:51.815Z,4.20
2019-02-21T04:33:27.235Z,4.20
2019-02-21T04:34:02.655Z,4.20
2019-02-21T04:34:38.095Z,4.30
2019-02-21T04:35:13.532Z,4.20
2019-02-21T04:35:48.957Z,4.20
2019-02-21T04:36:24.297Z,4.30
2019-02-21T04:36:59.810Z,4.20
2019-02-21T04:37:35.402Z,4.30
2019-02-21T04:38:10.779Z,4.20
2019-02-21T04:38:46.191Z,4.20
2019-02-21T04:39:21.574Z,4.20
2019-02-21T04:39:56.951Z,4.20
2019-02-21T04:40:32.517Z,4.20
2019-02-21T04:41:07.907Z,4.20
2019-02-21T04:41:43.487Z,4.20
2019-02-21T04:42:19.009Z,4.20
2019-02-21T04:42:54.347Z,4.20
2019-02-21T04:43:29.768Z,4.20
2019-02-21T04:44:05.388Z,4.20
2019-02-21T04:44:40.749Z,4.20
2019-02-21T04:45:16.193Z,4.20
2019-02-21T04:45:51.804Z,4.20
2019-02-21T04:46:27.349Z,4.20
2019-02-21T04:47:02.852Z,4.20
2019-02-21T04:47:38.320Z,4.20
2019-02-21T04:48:13.730Z,4.20
2019-02-21T04:48:49.076Z,4.20
2019-02-21T04:49:24.487Z,4.20
2019-02-21T04:49:59.835Z,4.20
2019-02-21T04:50:35.161Z,4.20
2019-02-21T04:51:10.696Z,4.20
2019-02-21T04:51:46.007Z,4.20
2019-02-21T04:52:21.367Z,4.20
2019-02-21T04:52:56.747Z,4.20
2019-02-21T04:53:32.285Z,4.30
2019-02-21T04:54:07.734Z,4.30
2019-02-21T04:54:43.253Z,4.30
2019-02-21T04:55:18.688Z,4.30
2019-02-21T04:55:54.257Z,4.30
2019-02-21T04:56:29.773Z,4.30
2019-02-21T04:57:05.339Z,4.30
2019-02-21T04:57:40.892Z,4.30
2019-02-21T04:58:16.425Z,4.30
2019-02-21T04:58:51.789Z,4.30
2019-02-21T04:59:27.085Z,4.30
2019-02-21T05:00:02.606Z,4.30
2019-02-21T05:00:37.974Z,4.30
2019-02-21T05:01:13.415Z,4.30
2019-02-21T05:01:48.854Z,4.30
2019-02-21T05:02:28.921Z,4.30
2019-02-21T05:03:01.276Z,4.30
2019-02-21T05:03:36.667Z,4.30
2019-02-21T05:04:11.988Z,4.30
2019-02-21T05:04:47.408Z,4.30
2019-02-21T05:05:22.830Z,4.30
2019-02-21T05:05:58.350Z,4.30
2019-02-21T05:06:33.718Z,4.30
2019-02-21T05:07:09.229Z,4.30
2019-02-21T05:07:44.527Z,4.30
2019-02-21T05:08:20.128Z,4.30
2019-02-21T05:08:55.530Z,4.30
2019-02-21T05:09:31.070Z,4.20
2019-02-21T05:10:06.544Z,4.30
2019-02-21T05:10:42.208Z,4.20
2019-02-21T05:11:17.806Z,4.20
2019-02-21T05:11:53.525Z,4.20
2019-02-21T05:12:28.847Z,4.20
2019-02-21T05:13:04.321Z,4.20
2019-02-21T05:13:39.847Z,4.20
2019-02-21T05:14:15.350Z,4.20
2019-02-21T05:14:50.862Z,4.20
2019-02-21T05:15:26.295Z,4.20
2019-02-21T05:16:01.627Z,4.20
2019-02-21T05:16:36.950Z,4.10
2019-02-21T05:17:12.290Z,4.20
2019-02-21T05:17:47.814Z,4.20
2019-02-21T05:18:23.255Z,4.20
2019-02-21T05:18:58.653Z,4.20
2019-02-21T05:19:34.386Z,4.20
2019-02-21T05:20:09.847Z,4.20
2019-02-21T05:20:45.249Z,4.20
2019-02-21T05:21:20.693Z,4.20
2019-02-21T05:21:56.025Z,4.10
2019-02-21T05:22:31.526Z,4.10
2019-02-21T05:23:06.925Z,4.10
2019-02-21T05:23:42.285Z,4.10
2019-02-21T05:24:17.665Z,4.10
2019-02-21T05:24:52.971Z,4.10
2019-02-21T05:25:28.498Z,4.10
2019-02-21T05:26:04.060Z,4.10
2019-02-21T05:26:43.267Z,4.00
2019-02-21T05:27:22.307Z,4.00
2019-02-21T05:28:16.636Z,4.00
2019-02-21T05:28:52.509Z,4.00
2019-02-21T05:29:28.046Z,4.00
2019-02-21T05:30:03.965Z,4.00
2019-02-21T05:30:39.328Z,4.00
2019-02-21T05:31:36.628Z,4.00
2019-02-21T05:32:40.661Z,4.00
2019-02-21T05:33:32.850Z,3.90
2019-02-21T05:34:25.894Z,4.00
2019-02-21T05:35:10.746Z,4.00
2019-02-21T05:36:14.731Z,3.90
2019-02-21T05:37:10.953Z,3.90
2019-02-21T05:38:00.932Z,3.80
2019-02-21T05:39:04.829Z,3.80
2019-02-21T05:40:02.727Z,3.80
2019-02-21T05:40:52.865Z,3.80
2019-02-21T05:41:46.005Z,3.70
2019-02-21T05:42:29.955Z,3.70
2019-02-21T05:43:23.193Z,3.70
2019-02-21T05:44:07.834Z,3.60
2019-02-21T05:44:51.135Z,3.60
2019-02-21T05:45:54.637Z,3.50
2019-02-21T05:46:55.063Z,3.50
2019-02-21T05:47:42.055Z,3.50
2019-02-21T05:48:31.503Z,3.40
2019-02-21T05:49:25.886Z,3.40
2019-02-21T05:50:32.553Z,3.30
2019-02-21T05:51:29.989Z,3.30
2019-02-21T05:52:12.886Z,3.20
2019-02-21T05:52:54.989Z,3.20
2019-02-21T05:53:45.469Z,3.20
2019-02-21T05:54:39.734Z,3.10
2019-02-21T05:55:29.911Z,3.00
2019-02-21T05:56:27.581Z,3.00
2019-02-21T05:57:21.830Z,2.90
2019-02-21T05:58:08.530Z,2.90
2019-02-21T05:59:08.846Z,2.90
2019-02-21T06:00:06.290Z,2.80
2019-02-21T06:01:09.686Z,2.80
2019-02-21T06:02:02.426Z,2.70
2019-02-21T06:02:56.786Z,2.70
2019-02-21T06:03:54.033Z,2.60
2019-02-21T06:04:51.948Z,2.60
2019-02-21T06:05:54.770Z,2.50
2019-02-21T06:07:09.873Z,2.50
2019-02-21T06:07:54.375Z,2.40
2019-02-21T06:08:39.949Z,2.40
2019-02-21T06:09:53.054Z,2.40
2019-02-21T06:10:56.034Z,2.40
2019-02-21T06:11:50.612Z,2.30
2019-02-21T06:12:36.580Z,2.30
2019-02-21T06:13:33.837Z,2.30
2019-02-21T06:14:34.130Z,2.30
2019-02-21T06:15:21.363Z,2.40
2019-02-21T06:16:12.689Z,2.40
2019-02-21T06:17:12.649Z,2.40
2019-02-21T06:18:09.588Z,2.40
2019-02-21T06:19:02.632Z,2.40
2019-02-21T06:19:52.389Z,2.40
2019-02-21T06:20:47.085Z,2.40
2019-02-21T06:21:32.345Z,2.50
2019-02-21T06:22:26.966Z,2.50
2019-02-21T06:23:12.085Z,2.60
2019-02-21T06:24:09.425Z,2.60
2019-02-21T06:25:12.814Z,2.70
2019-02-21T06:26:13.113Z,2.80
2019-02-21T06:26:54.000Z,2.80
2019-02-21T06:27:58.555Z,2.90
2019-02-21T06:28:56.245Z,3.00
2019-02-21T06:29:41.113Z,3.10
2019-02-21T06:30:20.725Z,3.10
2019-02-21T06:31:09.099Z,3.20
2019-02-21T06:31:44.748Z,3.20
2019-02-21T06:32:20.173Z,3.30
2019-02-21T06:33:04.618Z,3.30
2019-02-21T06:33:32.733Z,3.30
2019-02-21T06:34:08.352Z,3.40
2019-02-21T06:34:43.890Z,3.40
2019-02-21T06:35:19.229Z,3.40
2019-02-21T06:35:54.573Z,3.50
2019-02-21T06:36:30.125Z,3.50
2019-02-21T06:37:06.059Z,3.50
2019-02-21T06:37:41.673Z,3.60
2019-02-21T06:38:17.199Z,3.70
2019-02-21T06:38:52.591Z,3.70
2019-02-21T06:39:27.949Z,3.80
2019-02-21T06:40:03.531Z,3.80
2019-02-21T06:40:38.957Z,3.90
2019-02-21T06:41:14.465Z,3.90
2019-02-21T06:41:59.144Z,4.00
2019-02-21T06:42:26.888Z,4.00
2019-02-21T06:43:02.291Z,4.10
2019-02-21T06:43:37.745Z,4.10
2019-02-21T06:44:13.065Z,4.20
2019-02-21T06:44:48.514Z,4.20
2019-02-21T06:45:23.968Z,4.20
2019-02-21T06:45:59.646Z,4.20
2019-02-21T06:46:35.085Z,4.30
2019-02-21T06:47:10.509Z,4.30
2019-02-21T06:47:45.934Z,4.30
2019-02-21T06:48:21.373Z,4.30
2019-02-21T06:48:56.930Z,4.30
2019-02-21T06:49:33.061Z,4.40
2019-02-21T06:50:09.010Z,4.40
2019-02-21T06:50:44.430Z,4.40
2019-02-21T06:51:19.873Z,4.40
2019-02-21T06:51:55.245Z,4.40
2019-02-21T06:52:30.546Z,4.50
2019-02-21T06:53:06.293Z,4.50
2019-02-21T06:53:41.543Z,4.50
2019-02-21T06:54:17.090Z,4.60
2019-02-21T06:54:52.550Z,4.60
2019-02-21T06:55:27.883Z,4.60
2019-02-21T06:56:03.490Z,4.70
2019-02-21T06:56:39.102Z,4.70
2019-02-21T06:57:14.561Z,4.70
2019-02-21T06:57:50.097Z,4.80
2019-02-21T06:58:25.439Z,4.80
2019-02-21T06:59:00.972Z,4.80
2019-02-21T06:59:42.439Z,4.80
2019-02-21T07:00:13.940Z,4.90
2019-02-21T07:00:49.394Z,5.00
2019-02-21T07:01:29.027Z,5.00
2019-02-21T07:02:02.514Z,5.10
2019-02-21T07:02:37.984Z,5.10
2019-02-21T07:03:16.145Z,5.20
2019-02-21T07:03:50.529Z,5.20
2019-02-21T07:04:25.916Z,5.10
2019-02-21T07:05:01.411Z,5.10
2019-02-21T07:05:37.092Z,5.10
2019-02-21T07:06:12.893Z,5.10
2019-02-21T07:06:48.382Z,5.10
2019-02-21T07:07:23.646Z,5.10
2019-02-21T07:07:59.257Z,5.10
2019-02-21T07:08:34.575Z,5.10
2019-02-21T07:09:09.851Z,5.10
2019-02-21T07:09:45.386Z,5.20
2019-02-21T07:10:20.905Z,5.10
2019-02-21T07:11:05.887Z,5.20
2019-02-21T07:11:33.405Z,5.20
2019-02-21T07:12:10.594Z,5.20
2019-02-21T07:12:46.136Z,5.20
2019-02-21T07:13:26.705Z,5.30
2019-02-21T07:13:59.400Z,5.30
2019-02-21T07:14:34.810Z,5.30
2019-02-21T07:15:11.052Z,5.30
2019-02-21T07:15:46.646Z,5.30
2019-02-21T07:16:22.069Z,5.40
2019-02-21T07:16:57.488Z,5.40
2019-02-21T07:17:32.906Z,5.40
2019-02-21T07:18:11.014Z,5.40
2019-02-21T07:18:45.296Z,5.40
2019-02-21T07:19:20.627Z,5.40
2019-02-21T07:19:56.170Z,5.40
2019-02-21T07:20:31.932Z,5.50
2019-02-21T07:21:07.209Z,5.50
2019-02-21T07:21:42.545Z,5.50
2019-02-21T07:22:22.196Z,5.50
2019-02-21T07:22:55.570Z,5.50
2019-02-21T07:23:42.617Z,5.50
2019-02-21T07:24:08.076Z,5.50
2019-02-21T07:24:44.295Z,5.50
2019-02-21T07:25:32.427Z,5.60
2019-02-21T07:26:10.649Z,5.60
2019-02-21T07:26:46.107Z,5.60
2019-02-21T07:27:21.429Z,5.60
2019-02-21T07:27:58.362Z,5.60
2019-02-21T07:28:34.137Z,5.60
2019-02-21T07:29:09.653Z,5.60
2019-02-21T07:29:45.011Z,5.70
2019-02-21T07:30:23.032Z,5.70
2019-02-21T07:30:57.754Z,5.70
2019-02-21T07:31:33.298Z,5.70
2019-02-21T07:32:08.774Z,5.70
2019-02-21T07:32:44.310Z,5.80
2019-02-21T07:33:28.450Z,5.80
2019-02-21T07:33:56.849Z,5.80
2019-02-21T07:34:32.217Z,5.80
2019-02-21T07:35:07.755Z,5.90
2019-02-21T07:35:43.201Z,5.90
2019-02-21T07:36:18.733Z,5.90
2019-02-21T07:36:54.216Z,6.00
2019-02-21T07:37:29.679Z,6.00
2019-02-21T07:38:05.198Z,6.00
2019-02-21T07:38:40.567Z,6.00
2019-02-21T07:39:18.543Z,6.10
2019-02-21T07:39:53.030Z,6.10
2019-02-21T07:40:28.369Z,6.10
2019-02-21T07:41:04.117Z,6.20
2019-02-21T07:41:41.669Z,6.20
2019-02-21T07:42:16.938Z,6.20
2019-02-21T07:42:52.257Z,6.20
2019-02-21T07:43:27.836Z,6.20
2019-02-21T07:44:11.688Z,6.30
2019-02-21T07:44:40.369Z,6.30
2019-02-21T07:45:16.330Z,6.40
2019-02-21T07:45:51.789Z,6.40
2019-02-21T07:46:27.407Z,6.40
2019-02-21T07:47:02.710Z,6.40
2019-02-21T07:47:38.398Z,6.40
2019-02-21T07:48:13.950Z,6.40
2019-02-21T07:48:49.455Z,6.50
2019-02-21T07:49:25.750Z,6.50
2019-02-21T07:50:01.292Z,6.60
2019-02-21T07:50:36.747Z,6.60
2019-02-21T07:51:13.474Z,6.60
2019-02-21T07:51:49.229Z,6.60
2019-02-21T07:52:26.162Z,6.70
2019-02-21T07:53:02.657Z,6.70
2019-02-21T07:53:38.390Z,6.80
2019-02-21T07:54:13.750Z,6.80
2019-02-21T07:54:54.144Z,6.80
2019-02-21T07:55:26.600Z,6.80
2019-02-21T07:56:02.196Z,6.90
2019-02-21T07:56:41.901Z,6.90
2019-02-21T07:57:14.824Z,6.90
2019-02-21T07:57:50.315Z,6.90
2019-02-21T07:58:25.783Z,6.90
2019-02-21T07:59:01.161Z,7.00
2019-02-21T07:59:36.596Z,6.90
2019-02-21T08:00:12.737Z,7.00
2019-02-21T08:00:48.037Z,7.00
2019-02-21T08:01:23.460Z,7.10
2019-02-21T08:01:58.910Z,7.10
2019-02-21T08:02:34.438Z,7.10
2019-02-21T08:03:10.020Z,7.10
2019-02-21T08:03:48.351Z,7.20
2019-02-21T08:04:22.514Z,7.20
2019-02-21T08:04:58.024Z,7.20
2019-02-21T08:05:33.635Z,7.20
2019-02-21T08:06:09.077Z,7.20
2019-02-21T08:06:44.619Z,7.30
2019-02-21T08:07:20.068Z,7.30
2019-02-21T08:07:55.487Z,7.30
2019-02-21T08:08:32.497Z,7.30
2019-02-21T08:09:09.546Z,7.30
2019-02-21T08:09:44.989Z,7.30
2019-02-21T08:10:25.804Z,7.40
2019-02-21T08:10:58.065Z,7.40
2019-02-21T08:11:33.572Z,7.40
2019-02-21T08:12:09.053Z,7.50
2019-02-21T08:12:44.446Z,7.50
2019-02-21T08:13:19.944Z,7.50
2019-02-21T08:13:55.502Z,7.50
2019-02-21T08:14:30.957Z,7.60
2019-02-21T08:15:06.658Z,7.60
2019-02-21T08:15:42.332Z,7.60